sensor_id;sensor_type;location;lat;lon;timestamp;temperature;humidity
9486;DHT22;4781;48.776;9.200;2023-01-25T00:01:45;2.40;99.90
9486;DHT22;4781;48.776;9.200;2023-01-25T00:04:14;2.40;99.90
9486;DHT22;4781;48.776;9.200;2023-01-25T00:06:42;2.40;99.90
9486;DHT22;4781;48.776;9.200;2023-01-25T00:09:11;2.40;99.90
9486;DHT22;4781;48.776;9.200;2023-01-25T00:11:40;2.40;99.90
9486;DHT22;4781;48.776;9.200;2023-01-25T00:14:09;2.40;99.90
9486;DHT22;4781;48.776;9.200;2023-01-25T00:16:39;2.40;99.90
9486;DHT22;4781;48.776;9.200;2023-01-25T00:19:08;2.40;99.90
9486;DHT22;4781;48.776;9.200;2023-01-25T00:21:37;2.30;99.90
9486;DHT22;4781;48.776;9.200;2023-01-25T00:24:08;2.40;99.90
9486;DHT22;4781;48.776;9.200;2023-01-25T00:26:37;2.40;99.90
9486;DHT22;4781;48.776;9.200;2023-01-25T00:29:06;2.40;99.90
9486;DHT22;4781;48.776;9.200;2023-01-25T00:37:23;2.40;99.90
9486;DHT22;4781;48.776;9.200;2023-01-25T00:39:47;2.40;99.90
9486;DHT22;4781;48.776;9.200;2023-01-25T00:42:17;2.40;99.90
9486;DHT22;4781;48.776;9.200;2023-01-25T00:44:47;2.40;99.90
9486;DHT22;4781;48.776;9.200;2023-01-25T00:47:16;2.40;99.90
9486;DHT22;4781;48.776;9.200;2023-01-25T00:49:45;2.40;99.90
9486;DHT22;4781;48.776;9.200;2023-01-25T00:52:13;2.40;99.90
9486;DHT22;4781;48.776;9.200;2023-01-25T00:54:42;2.40;99.90
9486;DHT22;4781;48.776;9.200;2023-01-25T00:57:10;2.40;99.90
9486;DHT22;4781;48.776;9.200;2023-01-25T00:59:39;2.40;99.90
9486;DHT22;4781;48.776;9.200;2023-01-25T01:02:10;2.40;99.90
9486;DHT22;4781;48.776;9.200;2023-01-25T01:04:38;2.40;99.90
9486;DHT22;4781;48.776;9.200;2023-01-25T01:07:07;2.40;99.90
9486;DHT22;4781;48.776;9.200;2023-01-25T01:09:37;2.40;99.90
9486;DHT22;4781;48.776;9.200;2023-01-25T01:12:05;2.40;99.90
9486;DHT22;4781;48.776;9.200;2023-01-25T01:14:34;2.40;99.90
9486;DHT22;4781;48.776;9.200;2023-01-25T01:17:03;2.40;99.90
9486;DHT22;4781;48.776;9.200;2023-01-25T01:19:31;2.40;99.90
9486;DHT22;4781;48.776;9.200;2023-01-25T01:22:00;2.40;99.90
9486;DHT22;4781;48.776;9.200;2023-01-25T01:24:28;2.40;99.90
9486;DHT22;4781;48.776;9.200;2023-01-25T01:26:56;2.40;99.90
9486;DHT22;4781;48.776;9.200;2023-01-25T01:29:25;2.40;99.90
9486;DHT22;4781;48.776;9.200;2023-01-25T01:31:53;2.40;99.90
9486;DHT22;4781;48.776;9.200;2023-01-25T01:34:22;2.40;99.90
9486;DHT22;4781;48.776;9.200;2023-01-25T01:36:50;2.40;99.90
9486;DHT22;4781;48.776;9.200;2023-01-25T01:39:18;2.40;99.90
9486;DHT22;4781;48.776;9.200;2023-01-25T01:41:47;2.40;99.90
9486;DHT22;4781;48.776;9.200;2023-01-25T01:44:18;2.40;99.90
9486;DHT22;4781;48.776;9.200;2023-01-25T01:46:55;2.40;99.90
9486;DHT22;4781;48.776;9.200;2023-01-25T01:49:30;2.40;99.90
9486;DHT22;4781;48.776;9.200;2023-01-25T01:52:09;2.40;99.90
9486;DHT22;4781;48.776;9.200;2023-01-25T01:54:52;2.40;99.90
9486;DHT22;4781;48.776;9.200;2023-01-25T01:57:28;2.40;99.90
9486;DHT22;4781;48.776;9.200;2023-01-25T02:00:05;2.40;99.90
9486;DHT22;4781;48.776;9.200;2023-01-25T02:02:40;2.40;99.90
9486;DHT22;4781;48.776;9.200;2023-01-25T02:05:11;2.40;99.90
9486;DHT22;4781;48.776;9.200;2023-01-25T02:07:48;2.40;99.90
9486;DHT22;4781;48.776;9.200;2023-01-25T02:10:18;2.40;99.90
9486;DHT22;4781;48.776;9.200;2023-01-25T02:12:47;2.40;99.90
9486;DHT22;4781;48.776;9.200;2023-01-25T02:15:16;2.40;99.90
9486;DHT22;4781;48.776;9.200;2023-01-25T02:17:45;2.40;99.90
9486;DHT22;4781;48.776;9.200;2023-01-25T02:20:35;2.40;99.90
9486;DHT22;4781;48.776;9.200;2023-01-25T02:23:28;2.40;99.90
9486;DHT22;4781;48.776;9.200;2023-01-25T02:26:06;2.30;99.90
9486;DHT22;4781;48.776;9.200;2023-01-25T02:28:42;2.30;99.90
9486;DHT22;4781;48.776;9.200;2023-01-25T02:31:14;2.30;99.90
9486;DHT22;4781;48.776;9.200;2023-01-25T02:33:43;2.30;99.90
9486;DHT22;4781;48.776;9.200;2023-01-25T02:36:20;2.30;99.90
9486;DHT22;4781;48.776;9.200;2023-01-25T02:44:10;2.30;99.90
9486;DHT22;4781;48.776;9.200;2023-01-25T02:46:43;2.30;99.90
9486;DHT22;4781;48.776;9.200;2023-01-25T02:49:14;2.30;99.90
9486;DHT22;4781;48.776;9.200;2023-01-25T02:51:46;2.30;99.90
9486;DHT22;4781;48.776;9.200;2023-01-25T02:54:17;2.30;99.90
9486;DHT22;4781;48.776;9.200;2023-01-25T02:56:46;2.20;99.90
9486;DHT22;4781;48.776;9.200;2023-01-25T02:59:15;2.20;99.90
9486;DHT22;4781;48.776;9.200;2023-01-25T03:01:44;2.20;99.90
9486;DHT22;4781;48.776;9.200;2023-01-25T03:04:13;2.20;99.90
9486;DHT22;4781;48.776;9.200;2023-01-25T03:06:42;2.20;99.90
9486;DHT22;4781;48.776;9.200;2023-01-25T03:09:11;2.20;99.90
9486;DHT22;4781;48.776;9.200;2023-01-25T03:11:39;2.20;99.90
9486;DHT22;4781;48.776;9.200;2023-01-25T03:14:08;2.20;99.90
9486;DHT22;4781;48.776;9.200;2023-01-25T03:16:36;2.20;99.90
9486;DHT22;4781;48.776;9.200;2023-01-25T03:19:04;2.30;99.90
9486;DHT22;4781;48.776;9.200;2023-01-25T03:21:33;2.20;99.90
9486;DHT22;4781;48.776;9.200;2023-01-25T03:24:01;2.30;99.90
9486;DHT22;4781;48.776;9.200;2023-01-25T03:26:30;2.20;99.90
9486;DHT22;4781;48.776;9.200;2023-01-25T03:29:00;2.30;99.90
9486;DHT22;4781;48.776;9.200;2023-01-25T03:31:28;2.30;99.90
9486;DHT22;4781;48.776;9.200;2023-01-25T03:33:57;2.30;99.90
9486;DHT22;4781;48.776;9.200;2023-01-25T03:36:25;2.30;99.90
9486;DHT22;4781;48.776;9.200;2023-01-25T03:38:53;2.30;99.90
9486;DHT22;4781;48.776;9.200;2023-01-25T03:41:22;2.30;99.90
9486;DHT22;4781;48.776;9.200;2023-01-25T03:43:50;2.30;99.90
9486;DHT22;4781;48.776;9.200;2023-01-25T03:46:18;2.30;99.90
9486;DHT22;4781;48.776;9.200;2023-01-25T03:48:47;2.30;99.90
9486;DHT22;4781;48.776;9.200;2023-01-25T03:51:15;2.30;99.90
9486;DHT22;4781;48.776;9.200;2023-01-25T03:53:44;2.30;99.90
9486;DHT22;4781;48.776;9.200;2023-01-25T03:56:12;2.30;99.90
9486;DHT22;4781;48.776;9.200;2023-01-25T03:58:45;2.30;99.90
9486;DHT22;4781;48.776;9.200;2023-01-25T04:01:14;2.30;99.90
9486;DHT22;4781;48.776;9.200;2023-01-25T04:03:42;2.30;99.90
9486;DHT22;4781;48.776;9.200;2023-01-25T04:06:11;2.30;99.90
9486;DHT22;4781;48.776;9.200;2023-01-25T04:08:39;2.30;99.90
9486;DHT22;4781;48.776;9.200;2023-01-25T04:11:09;2.30;99.90
9486;DHT22;4781;48.776;9.200;2023-01-25T04:13:38;2.30;99.90
9486;DHT22;4781;48.776;9.200;2023-01-25T04:16:07;2.30;99.90
9486;DHT22;4781;48.776;9.200;2023-01-25T04:18:38;2.30;99.90
9486;DHT22;4781;48.776;9.200;2023-01-25T04:21:07;2.30;99.90
9486;DHT22;4781;48.776;9.200;2023-01-25T04:23:35;2.30;99.90
9486;DHT22;4781;48.776;9.200;2023-01-25T04:26:05;2.30;99.90
9486;DHT22;4781;48.776;9.200;2023-01-25T04:28:35;2.20;99.90
9486;DHT22;4781;48.776;9.200;2023-01-25T04:31:04;2.30;99.90
9486;DHT22;4781;48.776;9.200;2023-01-25T04:33:35;2.20;99.90
9486;DHT22;4781;48.776;9.200;2023-01-25T04:36:03;2.20;99.90
9486;DHT22;4781;48.776;9.200;2023-01-25T04:38:32;2.20;99.90
9486;DHT22;4781;48.776;9.200;2023-01-25T04:41:01;2.30;99.90
9486;DHT22;4781;48.776;9.200;2023-01-25T04:43:30;2.20;99.90
9486;DHT22;4781;48.776;9.200;2023-01-25T04:46:01;2.20;99.90
9486;DHT22;4781;48.776;9.200;2023-01-25T04:48:29;2.30;99.90
9486;DHT22;4781;48.776;9.200;2023-01-25T04:50:58;2.30;99.90
9486;DHT22;4781;48.776;9.200;2023-01-25T04:53:26;2.30;99.90
9486;DHT22;4781;48.776;9.200;2023-01-25T04:55:55;2.30;99.90
9486;DHT22;4781;48.776;9.200;2023-01-25T04:58:23;2.30;99.90
9486;DHT22;4781;48.776;9.200;2023-01-25T05:00:51;2.30;99.90
9486;DHT22;4781;48.776;9.200;2023-01-25T05:03:20;2.30;99.90
9486;DHT22;4781;48.776;9.200;2023-01-25T05:05:48;2.30;99.90
9486;DHT22;4781;48.776;9.200;2023-01-25T05:08:16;2.30;99.90
9486;DHT22;4781;48.776;9.200;2023-01-25T05:10:45;2.30;99.90
9486;DHT22;4781;48.776;9.200;2023-01-25T05:13:13;2.30;99.90
9486;DHT22;4781;48.776;9.200;2023-01-25T05:15:42;2.30;99.90
9486;DHT22;4781;48.776;9.200;2023-01-25T05:18:10;2.30;99.90
9486;DHT22;4781;48.776;9.200;2023-01-25T05:20:39;2.30;99.90
9486;DHT22;4781;48.776;9.200;2023-01-25T05:23:07;2.30;99.90
9486;DHT22;4781;48.776;9.200;2023-01-25T05:25:35;2.30;99.90
9486;DHT22;4781;48.776;9.200;2023-01-25T05:28:22;2.20;99.90
9486;DHT22;4781;48.776;9.200;2023-01-25T05:30:50;2.20;99.90
9486;DHT22;4781;48.776;9.200;2023-01-25T05:33:19;2.20;99.90
9486;DHT22;4781;48.776;9.200;2023-01-25T05:35:48;2.20;99.90
9486;DHT22;4781;48.776;9.200;2023-01-25T05:38:16;2.20;99.90
9486;DHT22;4781;48.776;9.200;2023-01-25T05:40:44;2.20;99.90
9486;DHT22;4781;48.776;9.200;2023-01-25T05:43:13;2.20;99.90
9486;DHT22;4781;48.776;9.200;2023-01-25T05:45:41;2.20;99.90
9486;DHT22;4781;48.776;9.200;2023-01-25T05:48:09;2.20;99.90
9486;DHT22;4781;48.776;9.200;2023-01-25T05:50:38;2.20;99.90
9486;DHT22;4781;48.776;9.200;2023-01-25T05:53:06;2.20;99.90
9486;DHT22;4781;48.776;9.200;2023-01-25T05:55:35;2.20;99.90
9486;DHT22;4781;48.776;9.200;2023-01-25T05:58:03;2.20;99.90
9486;DHT22;4781;48.776;9.200;2023-01-25T06:00:32;2.20;99.90
9486;DHT22;4781;48.776;9.200;2023-01-25T06:03:01;2.20;99.90
9486;DHT22;4781;48.776;9.200;2023-01-25T06:05:29;2.20;99.90
9486;DHT22;4781;48.776;9.200;2023-01-25T06:07:58;2.20;99.90
9486;DHT22;4781;48.776;9.200;2023-01-25T06:10:26;2.20;99.90
9486;DHT22;4781;48.776;9.200;2023-01-25T06:12:58;2.20;99.90
9486;DHT22;4781;48.776;9.200;2023-01-25T06:15:27;2.20;99.90
9486;DHT22;4781;48.776;9.200;2023-01-25T06:17:55;2.20;99.90
9486;DHT22;4781;48.776;9.200;2023-01-25T06:20:24;2.20;99.90
9486;DHT22;4781;48.776;9.200;2023-01-25T06:22:52;2.20;99.90
9486;DHT22;4781;48.776;9.200;2023-01-25T06:25:21;2.20;99.90
9486;DHT22;4781;48.776;9.200;2023-01-25T06:27:49;2.20;99.90
9486;DHT22;4781;48.776;9.200;2023-01-25T06:30:18;2.20;99.90
9486;DHT22;4781;48.776;9.200;2023-01-25T06:32:46;2.20;99.90
9486;DHT22;4781;48.776;9.200;2023-01-25T06:35:16;2.20;99.90
9486;DHT22;4781;48.776;9.200;2023-01-25T06:37:44;2.20;99.90
9486;DHT22;4781;48.776;9.200;2023-01-25T06:40:13;2.20;99.90
9486;DHT22;4781;48.776;9.200;2023-01-25T06:42:41;2.20;99.90
9486;DHT22;4781;48.776;9.200;2023-01-25T06:45:11;2.30;99.90
9486;DHT22;4781;48.776;9.200;2023-01-25T06:47:39;2.30;99.90
9486;DHT22;4781;48.776;9.200;2023-01-25T06:50:09;2.30;99.90
9486;DHT22;4781;48.776;9.200;2023-01-25T06:52:37;2.30;99.90
9486;DHT22;4781;48.776;9.200;2023-01-25T06:55:07;2.30;99.90
9486;DHT22;4781;48.776;9.200;2023-01-25T06:57:37;2.30;99.90
9486;DHT22;4781;48.776;9.200;2023-01-25T07:00:06;2.30;99.90
9486;DHT22;4781;48.776;9.200;2023-01-25T07:02:36;2.30;99.90
9486;DHT22;4781;48.776;9.200;2023-01-25T07:05:04;2.30;99.90
9486;DHT22;4781;48.776;9.200;2023-01-25T07:07:33;2.30;99.90
9486;DHT22;4781;48.776;9.200;2023-01-25T07:10:02;2.30;99.90
9486;DHT22;4781;48.776;9.200;2023-01-25T07:12:30;2.30;99.90
9486;DHT22;4781;48.776;9.200;2023-01-25T07:14:59;2.30;99.90
9486;DHT22;4781;48.776;9.200;2023-01-25T07:17:27;2.30;99.90
9486;DHT22;4781;48.776;9.200;2023-01-25T07:19:55;2.30;99.90
9486;DHT22;4781;48.776;9.200;2023-01-25T07:22:24;2.30;99.90
9486;DHT22;4781;48.776;9.200;2023-01-25T07:24:52;2.30;99.90
9486;DHT22;4781;48.776;9.200;2023-01-25T07:27:22;2.30;99.90
9486;DHT22;4781;48.776;9.200;2023-01-25T07:29:51;2.30;99.90
9486;DHT22;4781;48.776;9.200;2023-01-25T07:32:19;2.30;99.90
9486;DHT22;4781;48.776;9.200;2023-01-25T07:34:48;2.30;99.90
9486;DHT22;4781;48.776;9.200;2023-01-25T07:37:16;2.30;99.90
9486;DHT22;4781;48.776;9.200;2023-01-25T07:39:48;2.30;99.90
9486;DHT22;4781;48.776;9.200;2023-01-25T07:42:17;2.30;99.90
9486;DHT22;4781;48.776;9.200;2023-01-25T07:44:45;2.30;99.90
9486;DHT22;4781;48.776;9.200;2023-01-25T07:47:13;2.30;99.90
9486;DHT22;4781;48.776;9.200;2023-01-25T07:49:42;2.30;99.90
9486;DHT22;4781;48.776;9.200;2023-01-25T07:52:10;2.30;99.90
9486;DHT22;4781;48.776;9.200;2023-01-25T07:54:38;2.30;99.90
9486;DHT22;4781;48.776;9.200;2023-01-25T07:57:07;2.30;99.90
9486;DHT22;4781;48.776;9.200;2023-01-25T07:59:35;2.30;99.90
9486;DHT22;4781;48.776;9.200;2023-01-25T08:02:04;2.40;99.90
9486;DHT22;4781;48.776;9.200;2023-01-25T08:04:32;2.40;99.90
9486;DHT22;4781;48.776;9.200;2023-01-25T08:07:00;2.40;99.90
9486;DHT22;4781;48.776;9.200;2023-01-25T08:09:29;2.40;99.90
9486;DHT22;4781;48.776;9.200;2023-01-25T08:11:57;2.40;99.90
9486;DHT22;4781;48.776;9.200;2023-01-25T08:14:25;2.40;99.90
9486;DHT22;4781;48.776;9.200;2023-01-25T08:16:54;2.40;99.90
9486;DHT22;4781;48.776;9.200;2023-01-25T08:19:22;2.40;99.90
9486;DHT22;4781;48.776;9.200;2023-01-25T08:21:51;2.40;99.90
9486;DHT22;4781;48.776;9.200;2023-01-25T08:24:20;2.40;99.90
9486;DHT22;4781;48.776;9.200;2023-01-25T08:26:48;2.40;99.90
9486;DHT22;4781;48.776;9.200;2023-01-25T08:29:17;2.40;99.90
9486;DHT22;4781;48.776;9.200;2023-01-25T08:31:45;2.40;99.90
9486;DHT22;4781;48.776;9.200;2023-01-25T08:34:13;2.40;99.90
9486;DHT22;4781;48.776;9.200;2023-01-25T08:36:42;2.40;99.90
9486;DHT22;4781;48.776;9.200;2023-01-25T08:39:11;2.40;99.90
9486;DHT22;4781;48.776;9.200;2023-01-25T08:41:40;2.40;99.90
9486;DHT22;4781;48.776;9.200;2023-01-25T08:44:08;2.40;99.90
9486;DHT22;4781;48.776;9.200;2023-01-25T08:46:37;2.40;99.90
9486;DHT22;4781;48.776;9.200;2023-01-25T08:49:05;2.40;99.90
9486;DHT22;4781;48.776;9.200;2023-01-25T08:51:35;2.40;99.90
9486;DHT22;4781;48.776;9.200;2023-01-25T08:54:06;2.40;99.90
9486;DHT22;4781;48.776;9.200;2023-01-25T08:56:37;2.40;99.90
9486;DHT22;4781;48.776;9.200;2023-01-25T08:59:08;2.40;99.90
9486;DHT22;4781;48.776;9.200;2023-01-25T09:01:39;2.40;99.90
9486;DHT22;4781;48.776;9.200;2023-01-25T09:04:08;2.40;99.90
9486;DHT22;4781;48.776;9.200;2023-01-25T09:06:36;2.40;99.90
9486;DHT22;4781;48.776;9.200;2023-01-25T09:09:05;2.40;99.90
9486;DHT22;4781;48.776;9.200;2023-01-25T09:11:34;2.40;99.90
9486;DHT22;4781;48.776;9.200;2023-01-25T09:14:03;2.40;99.90
9486;DHT22;4781;48.776;9.200;2023-01-25T09:16:32;2.40;99.90
9486;DHT22;4781;48.776;9.200;2023-01-25T09:19:02;2.50;99.90
9486;DHT22;4781;48.776;9.200;2023-01-25T09:21:32;2.50;99.90
9486;DHT22;4781;48.776;9.200;2023-01-25T09:24:01;2.40;99.90
9486;DHT22;4781;48.776;9.200;2023-01-25T09:26:31;2.40;99.90
9486;DHT22;4781;48.776;9.200;2023-01-25T09:29:04;2.40;99.90
9486;DHT22;4781;48.776;9.200;2023-01-25T09:31:33;2.40;99.90
9486;DHT22;4781;48.776;9.200;2023-01-25T09:34:05;2.40;99.90
9486;DHT22;4781;48.776;9.200;2023-01-25T09:36:34;2.50;99.90
9486;DHT22;4781;48.776;9.200;2023-01-25T09:39:03;2.50;99.90
9486;DHT22;4781;48.776;9.200;2023-01-25T09:41:47;2.50;99.90
9486;DHT22;4781;48.776;9.200;2023-01-25T09:44:40;2.50;99.90
9486;DHT22;4781;48.776;9.200;2023-01-25T09:55:53;2.50;99.90
9486;DHT22;4781;48.776;9.200;2023-01-25T09:58:36;2.50;99.90
9486;DHT22;4781;48.776;9.200;2023-01-25T10:03:51;2.50;99.90
9486;DHT22;4781;48.776;9.200;2023-01-25T10:06:28;2.50;99.90
9486;DHT22;4781;48.776;9.200;2023-01-25T10:09:11;2.50;99.90
9486;DHT22;4781;48.776;9.200;2023-01-25T10:11:55;2.50;99.90
9486;DHT22;4781;48.776;9.200;2023-01-25T10:14:25;2.60;99.90
9486;DHT22;4781;48.776;9.200;2023-01-25T10:17:05;2.60;99.90
9486;DHT22;4781;48.776;9.200;2023-01-25T10:19:48;2.60;99.90
9486;DHT22;4781;48.776;9.200;2023-01-25T10:22:27;2.60;99.90
9486;DHT22;4781;48.776;9.200;2023-01-25T10:31:04;2.60;99.90
9486;DHT22;4781;48.776;9.200;2023-01-25T10:33:38;2.60;99.90
9486;DHT22;4781;48.776;9.200;2023-01-25T10:36:11;2.60;99.90
9486;DHT22;4781;48.776;9.200;2023-01-25T10:38:42;2.50;99.90
9486;DHT22;4781;48.776;9.200;2023-01-25T10:44:03;2.60;99.90
9486;DHT22;4781;48.776;9.200;2023-01-25T10:52:21;2.70;99.90
9486;DHT22;4781;48.776;9.200;2023-01-25T10:55:15;2.70;99.90
9486;DHT22;4781;48.776;9.200;2023-01-25T10:57:50;2.70;99.90
9486;DHT22;4781;48.776;9.200;2023-01-25T11:00:26;2.70;99.90
9486;DHT22;4781;48.776;9.200;2023-01-25T11:02:55;2.60;99.90
9486;DHT22;4781;48.776;9.200;2023-01-25T11:05:34;2.60;99.90
9486;DHT22;4781;48.776;9.200;2023-01-25T11:08:22;2.60;99.90
9486;DHT22;4781;48.776;9.200;2023-01-25T11:10:59;2.60;99.90
9486;DHT22;4781;48.776;9.200;2023-01-25T11:13:46;2.60;99.90
9486;DHT22;4781;48.776;9.200;2023-01-25T11:16:33;2.60;99.90
9486;DHT22;4781;48.776;9.200;2023-01-25T11:19:09;2.60;99.90
9486;DHT22;4781;48.776;9.200;2023-01-25T11:21:55;2.60;99.90
9486;DHT22;4781;48.776;9.200;2023-01-25T11:24:29;2.60;99.90
9486;DHT22;4781;48.776;9.200;2023-01-25T11:27:22;2.60;99.90
9486;DHT22;4781;48.776;9.200;2023-01-25T11:30:07;2.60;99.90
9486;DHT22;4781;48.776;9.200;2023-01-25T11:32:40;2.60;99.90
9486;DHT22;4781;48.776;9.200;2023-01-25T11:35:13;2.60;99.90
9486;DHT22;4781;48.776;9.200;2023-01-25T11:40:38;2.70;99.90
9486;DHT22;4781;48.776;9.200;2023-01-25T11:43:20;2.70;99.90
9486;DHT22;4781;48.776;9.200;2023-01-25T11:46:08;2.60;99.90
9486;DHT22;4781;48.776;9.200;2023-01-25T11:51:42;2.60;99.90
9486;DHT22;4781;48.776;9.200;2023-01-25T11:54:34;2.70;99.90
9486;DHT22;4781;48.776;9.200;2023-01-25T12:06:21;2.60;99.90
9486;DHT22;4781;48.776;9.200;2023-01-25T12:09:15;2.60;99.90
9486;DHT22;4781;48.776;9.200;2023-01-25T12:17:44;2.60;99.90
9486;DHT22;4781;48.776;9.200;2023-01-25T12:20:27;2.60;99.90
9486;DHT22;4781;48.776;9.200;2023-01-25T12:23:31;2.60;99.90
9486;DHT22;4781;48.776;9.200;2023-01-25T12:26:28;2.50;99.90
9486;DHT22;4781;48.776;9.200;2023-01-25T12:29:15;2.50;99.90
9486;DHT22;4781;48.776;9.200;2023-01-25T12:31:50;2.60;99.90
9486;DHT22;4781;48.776;9.200;2023-01-25T12:34:40;2.50;99.90
9486;DHT22;4781;48.776;9.200;2023-01-25T12:37:24;2.60;99.90
9486;DHT22;4781;48.776;9.200;2023-01-25T12:40:15;2.60;99.90
9486;DHT22;4781;48.776;9.200;2023-01-25T12:42:57;2.60;99.90
9486;DHT22;4781;48.776;9.200;2023-01-25T12:45:34;2.60;99.90
9486;DHT22;4781;48.776;9.200;2023-01-25T12:48:27;2.60;99.90
9486;DHT22;4781;48.776;9.200;2023-01-25T12:51:00;2.50;99.90
9486;DHT22;4781;48.776;9.200;2023-01-25T12:53:37;2.50;99.90
9486;DHT22;4781;48.776;9.200;2023-01-25T12:56:20;2.50;99.90
9486;DHT22;4781;48.776;9.200;2023-01-25T12:58:52;2.60;99.90
9486;DHT22;4781;48.776;9.200;2023-01-25T13:01:35;2.50;99.90
9486;DHT22;4781;48.776;9.200;2023-01-25T13:07:18;2.50;99.90
9486;DHT22;4781;48.776;9.200;2023-01-25T13:09:58;2.50;99.90
9486;DHT22;4781;48.776;9.200;2023-01-25T13:12:56;2.50;99.90
9486;DHT22;4781;48.776;9.200;2023-01-25T13:15:34;2.50;99.90
9486;DHT22;4781;48.776;9.200;2023-01-25T13:21:00;2.50;99.90
9486;DHT22;4781;48.776;9.200;2023-01-25T13:28:57;2.40;99.90
9486;DHT22;4781;48.776;9.200;2023-01-25T13:34:58;2.50;99.90
9486;DHT22;4781;48.776;9.200;2023-01-25T13:37:28;2.40;99.90
9486;DHT22;4781;48.776;9.200;2023-01-25T13:40:01;2.40;99.90
9486;DHT22;4781;48.776;9.200;2023-01-25T13:42:38;2.40;99.90
9486;DHT22;4781;48.776;9.200;2023-01-25T13:45:15;2.40;99.90
9486;DHT22;4781;48.776;9.200;2023-01-25T13:50:50;2.40;99.90
9486;DHT22;4781;48.776;9.200;2023-01-25T13:53:24;2.40;99.90
9486;DHT22;4781;48.776;9.200;2023-01-25T13:55:56;2.40;99.90
9486;DHT22;4781;48.776;9.200;2023-01-25T13:58:43;2.40;99.90
9486;DHT22;4781;48.776;9.200;2023-01-25T14:01:19;2.30;99.90
9486;DHT22;4781;48.776;9.200;2023-01-25T14:03:48;2.30;99.90
9486;DHT22;4781;48.776;9.200;2023-01-25T14:06:26;2.20;99.90
9486;DHT22;4781;48.776;9.200;2023-01-25T14:09:26;2.20;99.90
9486;DHT22;4781;48.776;9.200;2023-01-25T14:11:46;2.20;99.90
9486;DHT22;4781;48.776;9.200;2023-01-25T14:17:17;2.20;99.90
9486;DHT22;4781;48.776;9.200;2023-01-25T14:19:50;2.20;99.90
9486;DHT22;4781;48.776;9.200;2023-01-25T14:22:32;2.20;99.90
9486;DHT22;4781;48.776;9.200;2023-01-25T14:25:10;2.20;99.90
9486;DHT22;4781;48.776;9.200;2023-01-25T14:27:58;2.10;99.90
9486;DHT22;4781;48.776;9.200;2023-01-25T14:30:30;2.20;99.90
9486;DHT22;4781;48.776;9.200;2023-01-25T14:33:14;2.20;99.90
9486;DHT22;4781;48.776;9.200;2023-01-25T14:35:47;2.30;99.90
9486;DHT22;4781;48.776;9.200;2023-01-25T14:38:25;2.30;99.90
9486;DHT22;4781;48.776;9.200;2023-01-25T14:41:12;2.20;99.90
9486;DHT22;4781;48.776;9.200;2023-01-25T14:43:50;2.20;99.90
9486;DHT22;4781;48.776;9.200;2023-01-25T14:46:34;2.30;99.90
9486;DHT22;4781;48.776;9.200;2023-01-25T14:51:58;2.30;99.90
9486;DHT22;4781;48.776;9.200;2023-01-25T14:54:43;2.30;99.90
9486;DHT22;4781;48.776;9.200;2023-01-25T14:57:31;2.30;99.90
9486;DHT22;4781;48.776;9.200;2023-01-25T15:00:17;2.20;99.90
9486;DHT22;4781;48.776;9.200;2023-01-25T15:02:39;2.20;99.90
9486;DHT22;4781;48.776;9.200;2023-01-25T15:05:26;2.20;99.90
9486;DHT22;4781;48.776;9.200;2023-01-25T15:10:49;2.10;99.90
9486;DHT22;4781;48.776;9.200;2023-01-25T15:13:24;2.10;99.90
9486;DHT22;4781;48.776;9.200;2023-01-25T15:15:58;2.00;99.90
9486;DHT22;4781;48.776;9.200;2023-01-25T15:18:50;2.00;99.90
9486;DHT22;4781;48.776;9.200;2023-01-25T15:21:32;2.00;99.90
9486;DHT22;4781;48.776;9.200;2023-01-25T15:24:04;2.00;99.90
9486;DHT22;4781;48.776;9.200;2023-01-25T15:26:34;2.00;99.90
9486;DHT22;4781;48.776;9.200;2023-01-25T15:29:14;1.90;99.90
9486;DHT22;4781;48.776;9.200;2023-01-25T15:31:46;2.00;99.90
9486;DHT22;4781;48.776;9.200;2023-01-25T15:34:21;2.10;99.90
9486;DHT22;4781;48.776;9.200;2023-01-25T15:37:01;2.10;99.90
9486;DHT22;4781;48.776;9.200;2023-01-25T15:39:30;2.10;99.90
9486;DHT22;4781;48.776;9.200;2023-01-25T15:41:58;2.10;99.90
9486;DHT22;4781;48.776;9.200;2023-01-25T15:44:27;2.10;99.90
9486;DHT22;4781;48.776;9.200;2023-01-25T15:46:55;2.10;99.90
9486;DHT22;4781;48.776;9.200;2023-01-25T15:49:28;2.10;99.90
9486;DHT22;4781;48.776;9.200;2023-01-25T15:51:58;2.10;99.90
9486;DHT22;4781;48.776;9.200;2023-01-25T15:54:26;2.10;99.90
9486;DHT22;4781;48.776;9.200;2023-01-25T15:56:56;2.10;99.90
9486;DHT22;4781;48.776;9.200;2023-01-25T15:59:25;2.10;99.90
9486;DHT22;4781;48.776;9.200;2023-01-25T16:01:53;2.10;99.90
9486;DHT22;4781;48.776;9.200;2023-01-25T16:04:22;2.10;99.90
9486;DHT22;4781;48.776;9.200;2023-01-25T16:06:52;2.10;99.90
9486;DHT22;4781;48.776;9.200;2023-01-25T16:09:26;2.00;99.90
9486;DHT22;4781;48.776;9.200;2023-01-25T16:12:00;1.90;99.90
9486;DHT22;4781;48.776;9.200;2023-01-25T16:14:29;1.90;99.90
9486;DHT22;4781;48.776;9.200;2023-01-25T16:17:00;1.90;99.90
9486;DHT22;4781;48.776;9.200;2023-01-25T16:19:31;1.90;99.90
9486;DHT22;4781;48.776;9.200;2023-01-25T16:22:00;1.90;99.90
9486;DHT22;4781;48.776;9.200;2023-01-25T16:24:28;2.00;99.90
9486;DHT22;4781;48.776;9.200;2023-01-25T16:26:57;2.00;99.90
9486;DHT22;4781;48.776;9.200;2023-01-25T16:29:26;1.90;99.90
9486;DHT22;4781;48.776;9.200;2023-01-25T16:31:54;1.90;99.90
9486;DHT22;4781;48.776;9.200;2023-01-25T16:34:23;2.00;99.90
9486;DHT22;4781;48.776;9.200;2023-01-25T16:36:51;1.90;99.90
9486;DHT22;4781;48.776;9.200;2023-01-25T16:39:22;1.90;99.90
9486;DHT22;4781;48.776;9.200;2023-01-25T16:41:52;1.90;99.90
9486;DHT22;4781;48.776;9.200;2023-01-25T16:44:21;2.00;99.90
9486;DHT22;4781;48.776;9.200;2023-01-25T16:46:49;2.00;99.90
9486;DHT22;4781;48.776;9.200;2023-01-25T16:49:20;2.00;99.90
9486;DHT22;4781;48.776;9.200;2023-01-25T16:51:54;2.00;99.90
9486;DHT22;4781;48.776;9.200;2023-01-25T16:54:24;2.00;99.90
9486;DHT22;4781;48.776;9.200;2023-01-25T16:56:53;2.00;99.90
9486;DHT22;4781;48.776;9.200;2023-01-25T16:59:25;2.00;99.90
9486;DHT22;4781;48.776;9.200;2023-01-25T17:01:54;2.00;99.90
9486;DHT22;4781;48.776;9.200;2023-01-25T17:04:22;1.90;99.90
9486;DHT22;4781;48.776;9.200;2023-01-25T17:06:50;2.00;99.90
9486;DHT22;4781;48.776;9.200;2023-01-25T17:09:20;2.00;99.90
9486;DHT22;4781;48.776;9.200;2023-01-25T17:11:49;2.00;99.90
9486;DHT22;4781;48.776;9.200;2023-01-25T17:14:18;2.00;99.90
9486;DHT22;4781;48.776;9.200;2023-01-25T17:16:47;2.00;99.90
9486;DHT22;4781;48.776;9.200;2023-01-25T17:19:17;1.90;99.90
9486;DHT22;4781;48.776;9.200;2023-01-25T17:21:45;1.90;99.90
9486;DHT22;4781;48.776;9.200;2023-01-25T17:24:16;1.90;99.90
9486;DHT22;4781;48.776;9.200;2023-01-25T17:26:46;2.00;99.90
9486;DHT22;4781;48.776;9.200;2023-01-25T17:29:14;2.00;99.90
9486;DHT22;4781;48.776;9.200;2023-01-25T17:31:43;2.00;99.90
9486;DHT22;4781;48.776;9.200;2023-01-25T17:34:13;1.80;99.90
9486;DHT22;4781;48.776;9.200;2023-01-25T17:36:44;1.80;99.90
9486;DHT22;4781;48.776;9.200;2023-01-25T17:39:15;1.80;99.90
9486;DHT22;4781;48.776;9.200;2023-01-25T17:41:47;1.90;99.90
9486;DHT22;4781;48.776;9.200;2023-01-25T17:44:20;1.80;99.90
9486;DHT22;4781;48.776;9.200;2023-01-25T17:46:50;1.70;99.90
9486;DHT22;4781;48.776;9.200;2023-01-25T17:49:19;1.70;99.90
9486;DHT22;4781;48.776;9.200;2023-01-25T17:51:47;1.70;99.90
9486;DHT22;4781;48.776;9.200;2023-01-25T17:54:16;1.80;99.90
9486;DHT22;4781;48.776;9.200;2023-01-25T17:56:45;1.80;99.90
9486;DHT22;4781;48.776;9.200;2023-01-25T17:59:13;1.80;99.90
9486;DHT22;4781;48.776;9.200;2023-01-25T18:01:45;1.90;99.90
9486;DHT22;4781;48.776;9.200;2023-01-25T18:04:14;1.90;99.90
9486;DHT22;4781;48.776;9.200;2023-01-25T18:06:43;1.90;99.90
9486;DHT22;4781;48.776;9.200;2023-01-25T18:09:11;1.90;99.90
9486;DHT22;4781;48.776;9.200;2023-01-25T18:11:39;1.90;99.90
9486;DHT22;4781;48.776;9.200;2023-01-25T18:14:10;1.90;99.90